Time;durP1;ratioP1;P1;durP2;ratioP2;P2;SDS_P1;SDS_P2;PMS_P1;PMS_P2;Temp;Humidity;BMP_temperature;BMP_pressure;BME280_temperature;BME280_humidity;BME280_pressure;Samples;Min_cycle;Max_cycle;Signal;HPM_P1;HPM_P2
2021/06/29 00:02:06;;;;;;;4.80;4.40;;;17.50;99.90;;;;;;5032654;28;20198;-69
2021/06/29 00:04:32;;;;;;;5.40;4.60;;;17.50;99.90;;;;;;5033187;28;20199;-69
2021/06/29 00:06:58;;;;;;;6.10;4.87;;;17.30;99.90;;;;;;5032744;28;20174;-67
2021/06/29 00:09:23;;;;;;;4.63;4.17;;;17.30;99.90;;;;;;5032688;28;20197;-69
2021/06/29 00:11:49;;;;;;;5.80;5.30;;;17.20;99.90;;;;;;5032476;28;20306;-69
2021/06/29 00:14:15;;;;;;;4.13;3.83;;;17.20;99.90;;;;;;5032710;28;20198;-69
2021/06/29 00:16:40;;;;;;;5.10;4.60;;;17.20;99.90;;;;;;5032876;28;20182;-68
2021/06/29 00:19:06;;;;;;;5.90;5.30;;;17.30;99.90;;;;;;5032423;28;20220;-68
2021/06/29 00:21:31;;;;;;;6.37;5.80;;;17.30;99.90;;;;;;5032458;28;20194;-68
2021/06/29 00:23:57;;;;;;;6.00;5.40;;;17.30;99.90;;;;;;5033056;28;20680;-67
2021/06/29 00:26:23;;;;;;;5.60;5.10;;;17.40;99.90;;;;;;5014512;28;20170;-69
2021/06/29 00:28:48;;;;;;;10.07;6.37;;;17.40;99.90;;;;;;5014416;28;20201;-69
2021/06/29 00:31:16;;;;;;;8.90;6.50;;;17.30;99.90;;;;;;5032600;28;20289;-69
2021/06/29 00:33:42;;;;;;;8.63;6.60;;;17.30;99.90;;;;;;5033017;28;20253;-68
2021/06/29 00:36:10;;;;;;;9.27;6.20;;;17.30;99.90;;;;;;5014735;28;20487;-67
2021/06/29 00:38:35;;;;;;;8.87;6.93;;;17.30;99.90;;;;;;5031996;28;20507;-69
2021/06/29 00:41:02;;;;;;;7.03;6.33;;;17.30;99.90;;;;;;5032346;28;20548;-68
2021/06/29 00:43:28;;;;;;;4.93;4.43;;;17.30;99.90;;;;;;5032679;28;20210;-69
2021/06/29 00:45:53;;;;;;;5.50;5.00;;;17.30;99.90;;;;;;5032484;28;20417;-68
2021/06/29 00:48:19;;;;;;;5.83;5.30;;;17.30;99.90;;;;;;5016242;28;20174;-69
2021/06/29 00:50:45;;;;;;;8.87;5.80;;;17.30;99.90;;;;;;5036129;28;20221;-67
2021/06/29 00:53:11;;;;;;;5.50;4.50;;;17.30;99.90;;;;;;5035883;28;20178;-67
2021/06/29 00:55:38;;;;;;;7.70;4.90;;;17.20;99.90;;;;;;5018323;28;20460;-68
2021/06/29 00:58:07;;;;;;;4.90;4.50;;;17.20;99.90;;;;;;5017573;28;20439;-67
2021/06/29 01:00:33;;;;;;;6.73;4.43;;;17.10;99.90;;;;;;5035378;28;20547;-70
2021/06/29 01:02:59;;;;;;;4.83;4.40;;;17.20;99.90;;;;;;5018164;28;20560;-68
2021/06/29 01:05:25;;;;;;;5.30;4.80;;;17.10;99.90;;;;;;5036150;28;20632;-67
2021/06/29 01:07:50;;;;;;;7.83;5.53;;;17.10;99.90;;;;;;5035512;28;20182;-67
2021/06/29 01:10:18;;;;;;;4.13;3.83;;;17.10;99.90;;;;;;5035910;28;20187;-67
2021/06/29 01:12:44;;;;;;;5.60;3.13;;;17.10;99.90;;;;;;5035746;28;20178;-67
2021/06/29 01:15:10;;;;;;;4.30;3.90;;;17.20;99.90;;;;;;5035467;28;20908;-67
2021/06/29 01:17:36;;;;;;;4.90;3.70;;;17.20;99.90;;;;;;5035245;28;20182;-67
2021/06/29 01:20:14;;;;;;;4.80;4.40;;;17.20;99.90;;;;;;5035513;28;20451;-66
2021/06/29 01:22:41;;;;;;;4.20;3.90;;;17.20;99.90;;;;;;5035412;28;20178;-66
2021/06/29 01:25:10;;;;;;;4.17;3.77;;;17.20;99.90;;;;;;5035681;28;20397;-66
2021/06/29 01:27:51;;;;;;;4.80;4.40;;;17.20;99.90;;;;;;5035058;28;20383;-68
2021/06/29 01:32:45;;;;;;;3.80;3.43;;;17.30;99.90;;;;;;5035187;28;21014;-67
2021/06/29 01:35:11;;;;;;;4.10;3.70;;;17.20;99.90;;;;;;5035669;28;20452;-68
2021/06/29 01:37:38;;;;;;;4.70;4.30;;;17.20;99.90;;;;;;5034947;28;20435;-67
2021/06/29 01:40:16;;;;;;;5.80;4.53;;;17.20;99.90;;;;;;5017661;28;20676;-68
2021/06/29 01:42:42;;;;;;;3.67;3.37;;;17.20;99.90;;;;;;5034990;28;20941;-69
2021/06/29 01:45:09;;;;;;;4.63;4.10;;;17.20;99.90;;;;;;5035149;28;20422;-69
2021/06/29 01:50:16;;;;;;;5.00;4.50;;;17.20;99.90;;;;;;5035399;28;20452;-69
2021/06/29 01:52:43;;;;;;;4.83;4.30;;;17.10;99.90;;;;;;5034655;28;20413;-66
2021/06/29 01:55:09;;;;;;;4.57;3.80;;;17.10;99.90;;;;;;5035040;28;20433;-67
2021/06/29 01:57:36;;;;;;;4.80;4.40;;;17.10;99.90;;;;;;5034222;28;20444;-68
2021/06/29 02:00:08;;;;;;;4.60;4.23;;;17.10;99.90;;;;;;5033699;28;20448;-66
2021/06/29 02:02:34;;;;;;;4.20;3.80;;;17.00;99.90;;;;;;5034087;28;20475;-68
2021/06/29 02:04:59;;;;;;;4.70;3.83;;;17.00;99.90;;;;;;5035004;28;20409;-66
2021/06/29 02:07:25;;;;;;;4.07;3.67;;;17.00;99.90;;;;;;5034284;28;20245;-69
2021/06/29 02:09:51;;;;;;;4.23;3.83;;;17.00;99.90;;;;;;5034613;28;20686;-67
2021/06/29 02:12:17;;;;;;;4.37;4.00;;;16.90;99.90;;;;;;5034314;28;20201;-67
2021/06/29 02:14:43;;;;;;;4.87;4.47;;;16.90;99.90;;;;;;5035025;28;20182;-67
2021/06/29 02:17:09;;;;;;;5.67;4.43;;;16.90;99.90;;;;;;5033955;28;20428;-65
2021/06/29 02:19:34;;;;;;;4.33;3.93;;;16.80;99.90;;;;;;5034193;28;20547;-67
2021/06/29 02:22:00;;;;;;;4.80;4.30;;;16.80;99.90;;;;;;5034129;28;20521;-65
2021/06/29 02:24:26;;;;;;;4.50;4.10;;;16.90;99.90;;;;;;5034328;28;20174;-65
2021/06/29 02:26:52;;;;;;;5.57;5.10;;;16.90;99.90;;;;;;5034626;28;20792;-68
2021/06/29 02:29:17;;;;;;;3.57;3.30;;;17.00;99.90;;;;;;5033846;28;20190;-67
2021/06/29 02:31:43;;;;;;;5.03;4.63;;;16.90;99.90;;;;;;5034523;28;20173;-66
2021/06/29 02:34:09;;;;;;;4.83;4.17;;;16.90;99.90;;;;;;5034053;28;20174;-66
2021/06/29 02:36:34;;;;;;;9.90;5.43;;;17.00;99.90;;;;;;5034070;28;20177;-67
2021/06/29 02:39:00;;;;;;;4.63;4.20;;;17.00;99.90;;;;;;5033660;28;20437;-67
2021/06/29 02:41:26;;;;;;;4.20;3.80;;;17.00;99.90;;;;;;5034232;28;20656;-67
2021/06/29 02:43:52;;;;;;;3.67;3.37;;;17.00;99.90;;;;;;5034054;28;20655;-66
2021/06/29 02:46:17;;;;;;;4.00;3.70;;;17.00;99.90;;;;;;5034245;28;20174;-67
2021/06/29 02:48:43;;;;;;;5.20;3.67;;;17.10;99.90;;;;;;5033381;28;20653;-68
2021/06/29 02:51:09;;;;;;;4.73;4.27;;;17.10;99.90;;;;;;5033660;28;20197;-67
2021/06/29 02:53:34;;;;;;;4.30;3.90;;;17.10;99.90;;;;;;5034050;28;20185;-67
2021/06/29 02:56:00;;;;;;;3.80;3.43;;;17.20;99.90;;;;;;5033657;28;20215;-68
2021/06/29 02:58:26;;;;;;;3.77;3.33;;;17.20;99.90;;;;;;5033026;28;20200;-67
2021/06/29 03:00:51;;;;;;;4.40;3.60;;;17.10;99.90;;;;;;5033957;28;20213;-67
2021/06/29 03:03:17;;;;;;;4.00;3.50;;;17.10;99.90;;;;;;5033701;28;20421;-66
2021/06/29 03:05:43;;;;;;;4.97;3.60;;;17.00;99.90;;;;;;5033593;28;20584;-68
2021/06/29 03:08:09;;;;;;;3.17;2.87;;;17.00;99.90;;;;;;5033186;28;20166;-66
2021/06/29 03:10:35;;;;;;;4.03;3.63;;;17.00;99.90;;;;;;5033471;28;20197;-67
2021/06/29 03:13:00;;;;;;;4.10;3.80;;;16.80;99.90;;;;;;5033345;28;20412;-67
2021/06/29 03:15:27;;;;;;;3.83;3.53;;;16.90;99.90;;;;;;5033267;28;20174;-65
2021/06/29 03:17:53;;;;;;;3.83;3.50;;;16.90;99.90;;;;;;5033207;28;20220;-67
2021/06/29 03:20:19;;;;;;;3.50;3.30;;;17.00;99.90;;;;;;5032617;28;20465;-67
2021/06/29 03:22:44;;;;;;;6.10;3.70;;;17.00;99.90;;;;;;5033229;28;20927;-68
2021/06/29 03:25:10;;;;;;;4.13;3.83;;;17.00;99.90;;;;;;5033032;28;20174;-68
2021/06/29 03:27:36;;;;;;;4.00;3.70;;;17.00;99.90;;;;;;5033028;28;20506;-67
2021/06/29 03:30:05;;;;;;;4.23;3.83;;;17.00;99.90;;;;;;5033026;28;20628;-67
2021/06/29 03:32:30;;;;;;;4.20;3.90;;;17.00;99.90;;;;;;5033555;28;20474;-67
2021/06/29 03:34:56;;;;;;;3.50;3.20;;;17.00;99.90;;;;;;5015171;28;20888;-67
2021/06/29 03:37:22;;;;;;;4.70;3.67;;;17.00;99.90;;;;;;5032692;28;20204;-68
2021/06/29 03:39:47;;;;;;;3.90;3.50;;;17.00;99.90;;;;;;5032662;28;20202;-67
2021/06/29 03:42:13;;;;;;;3.90;3.57;;;17.00;99.90;;;;;;5033164;28;20202;-66
2021/06/29 03:44:39;;;;;;;4.30;3.90;;;17.00;99.90;;;;;;5032982;28;20170;-65
2021/06/29 03:47:04;;;;;;;4.90;4.40;;;17.00;99.90;;;;;;5032937;28;20177;-66
2021/06/29 03:49:30;;;;;;;5.10;4.60;;;16.90;99.90;;;;;;5032520;28;20213;-67
2021/06/29 03:51:57;;;;;;;4.57;4.17;;;16.90;99.90;;;;;;5033389;28;20532;-65
2021/06/29 03:54:22;;;;;;;5.17;4.07;;;16.90;99.90;;;;;;5032874;28;20237;-66
2021/06/29 03:56:48;;;;;;;5.00;4.50;;;16.90;99.90;;;;;;5033086;28;20383;-66
2021/06/29 03:59:14;;;;;;;4.87;3.90;;;16.90;99.90;;;;;;5032383;28;20197;-67
2021/06/29 04:01:40;;;;;;;5.10;4.10;;;17.00;99.90;;;;;;5032932;28;20463;-67
2021/06/29 04:04:07;;;;;;;4.67;4.27;;;17.00;99.90;;;;;;5032937;28;20181;-67
2021/06/29 04:06:35;;;;;;;5.10;4.60;;;17.00;99.90;;;;;;5033163;28;20412;-67
2021/06/29 04:09:03;;;;;;;3.90;3.50;;;17.00;99.90;;;;;;5031890;28;20459;-66
2021/06/29 04:11:29;;;;;;;4.63;3.90;;;17.00;99.90;;;;;;5033158;28;20416;-67
2021/06/29 04:13:55;;;;;;;4.37;3.97;;;17.00;99.90;;;;;;5032795;28;20455;-67
2021/06/29 04:16:22;;;;;;;4.83;4.13;;;17.00;99.90;;;;;;5033144;28;20272;-68
2021/06/29 04:18:47;;;;;;;8.50;3.67;;;16.90;99.90;;;;;;5032252;28;20456;-68
2021/06/29 04:21:14;;;;;;;4.17;3.87;;;16.90;99.90;;;;;;5032658;28;20456;-67
2021/06/29 04:23:44;;;;;;;4.37;4.07;;;16.90;99.90;;;;;;5034560;28;20474;-68
2021/06/29 04:26:16;;;;;;;5.57;4.83;;;16.90;99.90;;;;;;5036507;28;20412;-69
2021/06/29 04:28:42;;;;;;;4.80;4.37;;;16.80;99.90;;;;;;5036243;28;20439;-68
2021/06/29 04:31:08;;;;;;;3.73;3.33;;;16.80;99.90;;;;;;5036439;28;20427;-68
2021/06/29 04:33:33;;;;;;;4.60;4.23;;;16.80;99.90;;;;;;5036052;28;20568;-68
2021/06/29 04:35:59;;;;;;;5.03;4.63;;;16.80;99.90;;;;;;5036428;28;20166;-68
2021/06/29 04:38:25;;;;;;;5.50;4.67;;;16.80;99.90;;;;;;5036218;28;20420;-68
2021/06/29 04:40:50;;;;;;;4.70;4.30;;;16.80;99.90;;;;;;5036194;28;20253;-67
2021/06/29 04:43:16;;;;;;;6.10;5.47;;;16.70;99.90;;;;;;4999082;28;20561;-67
2021/06/29 04:45:42;;;;;;;5.23;4.60;;;16.70;99.90;;;;;;5016736;28;20175;-69
2021/06/29 04:48:09;;;;;;;5.20;3.97;;;16.70;99.90;;;;;;5034296;28;20499;-68
2021/06/29 04:50:35;;;;;;;5.40;3.70;;;16.60;99.90;;;;;;5036341;28;20240;-68
2021/06/29 04:53:00;;;;;;;5.27;4.80;;;16.70;99.90;;;;;;5035919;28;20813;-69
2021/06/29 04:55:26;;;;;;;7.90;4.57;;;16.70;99.90;;;;;;5018415;28;20417;-68
2021/06/29 04:57:52;;;;;;;4.97;4.53;;;16.70;99.90;;;;;;5035310;28;20181;-70
2021/06/29 05:00:19;;;;;;;4.80;4.40;;;16.80;99.90;;;;;;5035896;28;20675;-68
2021/06/29 05:02:45;;;;;;;4.77;4.30;;;16.80;99.90;;;;;;5035923;28;20297;-69
2021/06/29 05:05:11;;;;;;;4.60;4.20;;;16.90;99.90;;;;;;5035887;28;20494;-67
2021/06/29 05:07:41;;;;;;;4.73;4.30;;;16.90;99.90;;;;;;5017255;28;20646;-68
2021/06/29 05:10:09;;;;;;;6.13;5.00;;;17.00;99.90;;;;;;5035712;28;20428;-69
2021/06/29 05:12:36;;;;;;;6.90;4.80;;;17.10;99.90;;;;;;5035907;28;20903;-69
2021/06/29 05:15:04;;;;;;;4.97;4.57;;;17.20;99.90;;;;;;5035581;28;20496;-66
2021/06/29 05:17:29;;;;;;;5.33;4.77;;;17.20;99.90;;;;;;5035079;28;20447;-69
2021/06/29 05:19:55;;;;;;;6.43;4.70;;;17.30;99.90;;;;;;5035253;28;20921;-69
2021/06/29 05:22:21;;;;;;;6.03;5.30;;;17.30;99.90;;;;;;5035436;28;20202;-68
2021/06/29 05:24:46;;;;;;;7.93;5.07;;;17.30;99.90;;;;;;5035242;28;20170;-70
2021/06/29 05:27:12;;;;;;;4.67;4.30;;;17.30;99.90;;;;;;5035349;28;20216;-70
2021/06/29 05:29:37;;;;;;;6.00;4.53;;;17.30;99.90;;;;;;5034868;28;20259;-68
2021/06/29 05:32:03;;;;;;;4.93;4.53;;;17.30;99.90;;;;;;5035096;28;20178;-68
2021/06/29 05:34:29;;;;;;;5.63;4.87;;;17.30;99.90;;;;;;5034524;28;20182;-70
2021/06/29 05:36:55;;;;;;;5.90;5.30;;;17.30;99.90;;;;;;5035138;28;20908;-69
2021/06/29 05:39:20;;;;;;;6.03;5.53;;;17.30;99.90;;;;;;5034422;28;20251;-67
2021/06/29 05:41:46;;;;;;;10.10;5.50;;;17.30;99.90;;;;;;5017506;28;20619;-65
2021/06/29 05:44:12;;;;;;;6.30;5.13;;;17.30;99.90;;;;;;5035038;28;20181;-65
2021/06/29 05:46:40;;;;;;;5.47;4.97;;;17.30;99.90;;;;;;5034948;28;20192;-64
2021/06/29 05:49:10;;;;;;;6.30;5.70;;;17.30;99.90;;;;;;5034190;28;20431;-65
2021/06/29 05:51:36;;;;;;;5.50;5.00;;;17.30;99.90;;;;;;5034528;28;20504;-70
2021/06/29 05:54:02;;;;;;;5.30;4.80;;;17.30;99.90;;;;;;5034297;28;20506;-67
2021/06/29 05:56:27;;;;;;;5.20;4.70;;;17.40;99.90;;;;;;5034270;28;20933;-66
2021/06/29 05:58:53;;;;;;;5.87;4.53;;;17.40;99.90;;;;;;5034530;28;20243;-70
2021/06/29 06:01:19;;;;;;;4.93;4.53;;;17.50;99.90;;;;;;5034312;28;20191;-68
2021/06/29 06:03:44;;;;;;;6.30;5.70;;;17.50;99.90;;;;;;5034727;28;20174;-69
2021/06/29 06:06:10;;;;;;;5.57;4.97;;;17.60;99.90;;;;;;5034526;28;20183;-69
2021/06/29 06:08:36;;;;;;;5.90;5.37;;;17.60;99.90;;;;;;5033421;28;20196;-68
2021/06/29 06:11:01;;;;;;;5.20;4.70;;;17.60;99.90;;;;;;5033918;28;20201;-68
2021/06/29 06:13:27;;;;;;;6.53;5.10;;;17.70;99.90;;;;;;5035237;28;20171;-68
2021/06/29 06:15:53;;;;;;;6.40;5.80;;;17.70;99.90;;;;;;5033909;28;20540;-68
2021/06/29 06:18:19;;;;;;;6.90;5.70;;;17.80;99.90;;;;;;5033601;28;20525;-68
2021/06/29 06:20:45;;;;;;;5.87;5.30;;;17.90;99.90;;;;;;5034390;28;20424;-69
2021/06/29 06:23:12;;;;;;;5.80;5.30;;;18.00;99.90;;;;;;5034506;28;20420;-68
2021/06/29 06:25:37;;;;;;;6.43;5.53;;;18.10;99.90;;;;;;5034480;28;20543;-68
2021/06/29 06:28:05;;;;;;;5.07;4.67;;;18.20;99.90;;;;;;5034100;28;20493;-68
2021/06/29 06:30:31;;;;;;;5.50;5.00;;;18.30;99.90;;;;;;5034073;28;20238;-68
2021/06/29 06:32:56;;;;;;;6.47;5.70;;;18.40;99.90;;;;;;5034294;28;20786;-69
2021/06/29 06:35:22;;;;;;;5.70;4.57;;;18.50;99.90;;;;;;5034273;28;20452;-69
2021/06/29 06:37:48;;;;;;;5.63;5.07;;;18.60;99.90;;;;;;5034003;28;20261;-68
2021/06/29 06:40:14;;;;;;;3.63;3.43;;;18.80;99.90;;;;;;5033470;28;20200;-70
2021/06/29 06:42:40;;;;;;;4.80;4.40;;;19.00;99.90;;;;;;5033891;28;20202;-68
2021/06/29 06:45:08;;;;;;;3.67;3.37;;;19.20;99.90;;;;;;5033505;28;20420;-70
2021/06/29 06:47:34;;;;;;;4.13;3.73;;;19.40;99.90;;;;;;5033564;28;20499;-68
2021/06/29 06:50:00;;;;;;;4.50;3.70;;;19.70;99.90;;;;;;5033911;28;20439;-67
2021/06/29 06:52:26;;;;;;;4.37;4.00;;;19.90;99.90;;;;;;5033998;28;20405;-69
2021/06/29 06:54:52;;;;;;;5.90;4.50;;;20.10;99.90;;;;;;5033648;28;20170;-67
2021/06/29 06:57:17;;;;;;;4.10;3.70;;;20.30;99.90;;;;;;5033432;28;20418;-70
2021/06/29 06:59:43;;;;;;;4.37;3.57;;;20.50;99.90;;;;;;5033548;28;20594;-70
2021/06/29 07:02:09;;;;;;;3.73;3.40;;;20.60;99.90;;;;;;5033463;28;20272;-70
2021/06/29 07:04:35;;;;;;;3.27;3.07;;;20.60;99.90;;;;;;5015801;28;20174;-69
2021/06/29 07:07:02;;;;;;;4.17;3.77;;;20.80;99.90;;;;;;5033348;28;20386;-69
2021/06/29 07:09:28;;;;;;;4.30;3.00;;;21.00;99.90;;;;;;5032904;28;20498;-69
2021/06/29 07:11:54;;;;;;;3.33;3.03;;;21.10;99.90;;;;;;5033589;28;20492;-71
2021/06/29 07:14:19;;;;;;;3.40;3.10;;;21.20;99.90;;;;;;5033189;28;20714;-70
2021/06/29 07:16:45;;;;;;;5.00;3.53;;;21.40;99.90;;;;;;5033379;28;20423;-70
2021/06/29 07:19:12;;;;;;;3.47;3.17;;;21.40;99.90;;;;;;5033146;28;20689;-69
2021/06/29 07:21:38;;;;;;;4.47;3.73;;;21.60;99.90;;;;;;5033642;28;20451;-70
2021/06/29 07:24:04;;;;;;;3.70;3.40;;;21.90;99.90;;;;;;5033624;28;20484;-69
2021/06/29 07:26:30;;;;;;;3.00;2.80;;;22.10;99.90;;;;;;5033657;28;20397;-70
2021/06/29 07:28:56;;;;;;;4.03;3.30;;;22.40;99.90;;;;;;5014966;28;20444;-69
2021/06/29 07:31:22;;;;;;;6.13;3.10;;;22.80;99.90;;;;;;5032511;28;20228;-70
2021/06/29 07:33:48;;;;;;;3.20;3.00;;;23.20;99.90;;;;;;5033507;28;20170;-71
2021/06/29 07:36:16;;;;;;;4.50;3.00;;;23.80;99.90;;;;;;5033422;28;20403;-68
2021/06/29 07:38:43;;;;;;;2.90;2.50;;;24.70;99.90;;;;;;5015219;28;20949;-69
2021/06/29 07:41:13;;;;;;;3.30;3.00;;;25.80;99.90;;;;;;5033329;28;20423;-71
2021/06/29 07:43:39;;;;;;;2.77;2.57;;;27.10;99.90;;;;;;5032960;28;20421;-68
2021/06/29 07:46:06;;;;;;;3.43;3.13;;;28.40;99.90;;;;;;5033042;28;20805;-70
2021/06/29 07:48:32;;;;;;;2.90;2.70;;;29.80;99.90;;;;;;5032814;28;20190;-69
2021/06/29 07:50:58;;;;;;;3.10;2.90;;;30.70;98.00;;;;;;5032776;28;20478;-69
2021/06/29 07:53:23;;;;;;;3.17;2.97;;;31.10;94.80;;;;;;5033071;28;20405;-69
2021/06/29 07:55:49;;;;;;;2.20;2.10;;;31.80;96.80;;;;;;5033198;28;20384;-66
2021/06/29 07:58:19;;;;;;;3.00;2.90;;;32.70;92.60;;;;;;5034959;28;20525;-67
2021/06/29 08:00:47;;;;;;;2.77;2.67;;;33.40;90.00;;;;;;5037150;28;20492;-67
2021/06/29 08:03:12;;;;;;;3.20;3.10;;;33.60;90.60;;;;;;5037291;28;20419;-68
2021/06/29 08:05:38;;;;;;;3.10;2.90;;;33.80;90.50;;;;;;5036855;28;20923;-67
2021/06/29 08:08:07;;;;;;;2.80;2.70;;;33.30;87.00;;;;;;5036651;28;20497;-67
2021/06/29 08:10:34;;;;;;;2.27;2.17;;;33.40;88.80;;;;;;5036852;28;20198;-66
2021/06/29 08:13:00;;;;;;;3.00;2.80;;;33.80;83.30;;;;;;5037125;28;20810;-71
2021/06/29 08:15:27;;;;;;;2.93;2.73;;;33.80;86.40;;;;;;5036889;28;20423;-73
2021/06/29 08:17:53;;;;;;;2.40;2.30;;;33.80;87.40;;;;;;5018692;28;20749;-71
2021/06/29 08:20:20;;;;;;;2.37;2.27;;;33.60;87.10;;;;;;5036518;28;20463;-72
2021/06/29 08:22:47;;;;;;;2.40;2.30;;;34.10;83.50;;;;;;5036942;28;20456;-72
2021/06/29 08:25:13;;;;;;;1.70;1.60;;;34.80;86.00;;;;;;5036627;28;20412;-71
2021/06/29 08:27:39;;;;;;;2.67;2.20;;;35.40;78.10;;;;;;5036067;28;20403;-71
2021/06/29 08:30:08;;;;;;;2.20;2.10;;;35.70;81.20;;;;;;5036589;28;20437;-71
2021/06/29 08:32:34;;;;;;;1.73;1.63;;;36.30;81.30;;;;;;5036714;28;20408;-71
2021/06/29 08:34:59;;;;;;;2.40;2.20;;;36.70;77.50;;;;;;5036358;28;20452;-72
2021/06/29 08:37:25;;;;;;;2.20;2.10;;;37.20;75.90;;;;;;5036353;28;20174;-72
2021/06/29 08:39:52;;;;;;;1.90;1.80;;;37.40;72.90;;;;;;5036118;28;20224;-71
2021/06/29 08:42:20;;;;;;;2.77;2.13;;;37.50;72.30;;;;;;5036463;28;20174;-71
2021/06/29 08:44:46;;;;;;;2.00;1.90;;;37.60;72.80;;;;;;5036527;28;20463;-69
2021/06/29 08:47:12;;;;;;;2.40;2.30;;;37.80;67.90;;;;;;5036277;28;20431;-70
2021/06/29 08:49:37;;;;;;;2.20;2.10;;;37.90;71.10;;;;;;5036155;28;20437;-69
2021/06/29 08:52:05;;;;;;;2.20;2.10;;;38.10;69.10;;;;;;5036497;28;20457;-70
2021/06/29 08:54:32;;;;;;;2.27;2.17;;;38.20;67.20;;;;;;5036334;28;20232;-70
2021/06/29 08:56:58;;;;;;;2.90;2.37;;;38.20;66.80;;;;;;5036368;28;20429;-69
2021/06/29 08:59:24;;;;;;;5.70;5.27;;;38.00;64.80;;;;;;5035696;28;20478;-70
2021/06/29 09:01:53;;;;;;;1.77;1.77;;;37.80;67.90;;;;;;5036425;28;20497;-70
2021/06/29 09:04:56;;;;;;;1.83;1.73;;;37.80;56.30;;;;;;5035945;28;20417;-72
2021/06/29 09:07:30;;;;;;;1.90;1.80;;;37.90;59.90;;;;;;4936610;29;20452;-73
2021/06/29 09:10:00;;;;;;;1.30;1.30;;;38.10;57.10;;;;;;5022109;28;20845;-74
2021/06/29 09:12:52;;;;;;;1.73;1.73;;;38.30;53.10;;;;;;5017990;28;20503;-72
2021/06/29 09:15:26;;;;;;;2.40;2.30;;;38.30;54.70;;;;;;5036034;28;20424;-71
2021/06/29 09:17:55;;;;;;;2.00;1.90;;;38.10;57.90;;;;;;5034785;28;20435;-71
2021/06/29 09:20:29;;;;;;;1.60;1.50;;;37.90;58.50;;;;;;5035197;28;20441;-72
2021/06/29 09:23:12;;;;;;;1.77;1.70;;;38.10;55.60;;;;;;5035839;28;20440;-71
2021/06/29 09:25:39;;;;;;;1.90;1.80;;;38.50;55.90;;;;;;5035726;28;20422;-71
2021/06/29 09:28:05;;;;;;;1.60;1.60;;;38.60;56.80;;;;;;5034936;28;20421;-70
2021/06/29 09:30:41;;;;;;;2.00;1.90;;;38.50;54.80;;;;;;5035540;28;20455;-71
2021/06/29 09:33:08;;;;;;;1.70;1.60;;;38.40;53.60;;;;;;5035282;28;20409;-69
2021/06/29 09:35:35;;;;;;;1.60;1.50;;;38.20;55.40;;;;;;5035187;28;20409;-71
2021/06/29 09:38:02;;;;;;;1.90;1.57;;;37.80;53.00;;;;;;5034736;28;20413;-72
2021/06/29 09:40:30;;;;;;;1.90;1.80;;;37.80;52.80;;;;;;5035334;28;20471;-70
2021/06/29 09:43:10;;;;;;;1.70;1.60;;;38.00;56.20;;;;;;5035173;28;20405;-69
2021/06/29 09:45:45;;;;;;;2.10;1.90;;;37.30;55.40;;;;;;5035385;28;20397;-70
2021/06/29 09:48:13;;;;;;;1.90;1.80;;;37.10;57.30;;;;;;5034860;28;20417;-72
2021/06/29 09:50:45;;;;;;;1.90;1.80;;;37.10;57.40;;;;;;5035064;28;20509;-71
2021/06/29 09:53:12;;;;;;;1.63;1.63;;;37.20;59.00;;;;;;5035139;28;20405;-69
2021/06/29 09:55:39;;;;;;;1.60;1.50;;;37.30;58.20;;;;;;5035191;28;20808;-71
2021/06/29 09:58:13;;;;;;;2.00;1.90;;;37.60;57.70;;;;;;5034481;28;20425;-72
2021/06/29 10:00:51;;;;;;;1.83;1.73;;;37.80;58.50;;;;;;5035130;28;20425;-72
2021/06/29 10:03:28;;;;;;;2.20;2.10;;;37.60;56.20;;;;;;5034684;28;20895;-71
2021/06/29 10:05:56;;;;;;;2.20;2.10;;;37.70;56.60;;;;;;5034983;28;20512;-69
2021/06/29 10:08:28;;;;;;;1.80;1.70;;;38.00;57.10;;;;;;5034548;28;20436;-70
2021/06/29 10:11:15;;;;;;;2.20;1.67;;;38.20;54.20;;;;;;5034809;28;20452;-70
2021/06/29 10:13:52;;;;;;;1.70;1.60;;;38.40;53.70;;;;;;5018872;28;20425;-68
2021/06/29 10:16:21;;;;;;;1.80;1.70;;;38.50;52.60;;;;;;5034817;28;20415;-70
2021/06/29 10:21:25;;;;;;;1.53;1.50;;;38.20;52.90;;;;;;5033713;28;20417;-70
2021/06/29 10:24:00;;;;;;;1.70;1.60;;;37.60;51.90;;;;;;5034515;28;20417;-69
2021/06/29 10:26:29;;;;;;;1.57;1.50;;;37.30;54.10;;;;;;5034606;28;20408;-69
2021/06/29 10:28:55;;;;;;;1.80;1.70;;;37.00;54.60;;;;;;5034059;28;20826;-69
2021/06/29 10:31:29;;;;;;;1.83;1.73;;;36.80;56.40;;;;;;5034510;28;20453;-69
2021/06/29 10:33:58;;;;;;;2.00;1.90;;;36.60;54.80;;;;;;5034185;28;20431;-69
2021/06/29 10:36:26;;;;;;;1.83;1.73;;;36.50;56.50;;;;;;5034448;28;20868;-68
2021/06/29 10:38:53;;;;;;;1.90;1.80;;;36.10;56.20;;;;;;5033906;28;20784;-68
2021/06/29 10:41:21;;;;;;;1.80;1.70;;;36.00;56.00;;;;;;5034657;28;20420;-70
2021/06/29 10:43:48;;;;;;;1.87;1.77;;;35.70;55.50;;;;;;5035193;28;20448;-69
2021/06/29 10:46:39;;;;;;;1.90;1.80;;;35.40;56.60;;;;;;5034252;28;20760;-69
2021/06/29 10:49:28;;;;;;;1.70;1.60;;;34.90;56.00;;;;;;5033224;28;20974;-68
2021/06/29 10:51:56;;;;;;;1.67;1.40;;;34.50;57.00;;;;;;5033615;28;20488;-69
2021/06/29 10:54:43;;;;;;;3.00;2.43;;;33.60;56.40;;;;;;5033541;28;20409;-69
2021/06/29 10:57:12;;;;;;;1.77;1.67;;;33.10;60.20;;;;;;5032383;28;20507;-68
2021/06/29 10:59:41;;;;;;;1.60;1.53;;;33.10;56.90;;;;;;5032578;28;20444;-69
2021/06/29 11:02:10;;;;;;;1.87;1.77;;;32.80;61.20;;;;;;5033409;28;20811;-69
2021/06/29 11:04:53;;;;;;;2.90;1.90;;;32.20;65.90;;;;;;5033653;28;20387;-69
2021/06/29 11:07:31;;;;;;;1.97;1.87;;;31.10;62.90;;;;;;5033492;28;20396;-67
2021/06/29 11:10:05;;;;;;;2.10;2.00;;;30.70;63.70;;;;;;5033531;28;20475;-67
2021/06/29 11:12:34;;;;;;;1.60;1.50;;;30.40;66.20;;;;;;5033767;28;20434;-65
2021/06/29 11:15:06;;;;;;;1.70;1.60;;;30.40;63.80;;;;;;5032987;28;20394;-66
2021/06/29 11:17:50;;;;;;;1.80;1.70;;;30.30;67.00;;;;;;5033415;28;20470;-65
2021/06/29 11:20:22;;;;;;;1.70;1.60;;;30.00;65.00;;;;;;5033303;28;20835;-67
2021/06/29 11:22:51;;;;;;;1.97;1.70;;;29.60;64.60;;;;;;5033102;28;20955;-66
2021/06/29 11:25:41;;;;;;;1.50;1.40;;;29.10;66.50;;;;;;5033616;28;20904;-65
2021/06/29 11:28:07;;;;;;;1.80;1.70;;;28.60;69.50;;;;;;5033220;28;20794;-65
2021/06/29 11:30:51;;;;;;;2.20;2.00;;;28.10;70.50;;;;;;5033526;28;20429;-65
2021/06/29 11:33:34;;;;;;;1.97;1.87;;;27.50;78.40;;;;;;5033152;28;20187;-67
2021/06/29 11:36:02;;;;;;;1.60;1.50;;;27.20;76.60;;;;;;5033446;28;20454;-66
2021/06/29 11:38:39;;;;;;;2.00;1.90;;;27.10;80.10;;;;;;5032837;28;20496;-67
2021/06/29 11:41:36;;;;;;;1.80;1.70;;;27.20;85.50;;;;;;5033493;28;20418;-66
2021/06/29 11:44:08;;;;;;;1.80;1.70;;;27.50;78.70;;;;;;5033516;28;20377;-68
2021/06/29 11:46:53;;;;;;;1.63;1.53;;;27.70;81.30;;;;;;5032920;28;20905;-67
2021/06/29 11:49:38;;;;;;;1.63;1.50;;;27.80;81.30;;;;;;5032582;28;20439;-67
2021/06/29 11:52:21;;;;;;;1.53;1.53;;;27.90;78.80;;;;;;5033340;28;20555;-68
2021/06/29 11:54:58;;;;;;;1.70;1.60;;;28.00;74.10;;;;;;5033176;28;20941;-67
2021/06/29 11:57:42;;;;;;;1.70;1.60;;;28.10;77.00;;;;;;5032749;28;20379;-67
2021/06/29 12:00:33;;;;;;;1.70;1.60;;;28.30;80.40;;;;;;5033299;28;20402;-66
2021/06/29 12:03:12;;;;;;;4.00;2.23;;;28.50;74.90;;;;;;5013684;28;20421;-65
2021/06/29 12:05:39;;;;;;;1.43;1.40;;;28.40;78.00;;;;;;5013378;28;20396;-66
2021/06/29 12:08:06;;;;;;;1.67;1.57;;;28.20;78.10;;;;;;5012981;28;20879;-67
2021/06/29 12:10:33;;;;;;;1.70;1.70;;;28.20;80.30;;;;;;5027987;28;20490;-66
2021/06/29 12:13:17;;;;;;;1.73;1.63;;;28.10;81.10;;;;;;5032876;28;20492;-66
2021/06/29 12:15:51;;;;;;;2.07;1.87;;;28.10;78.70;;;;;;5033099;28;20745;-66
2021/06/29 12:18:28;;;;;;;1.70;1.60;;;27.90;79.10;;;;;;5032488;28;20403;-67
2021/06/29 12:21:00;;;;;;;1.73;1.63;;;27.80;81.30;;;;;;5033127;28;20930;-66
2021/06/29 12:23:28;;;;;;;1.73;1.63;;;27.70;85.60;;;;;;5033125;28;20435;-66
2021/06/29 12:26:05;;;;;;;1.40;1.40;;;27.80;87.20;;;;;;5032744;28;20395;-66
2021/06/29 12:28:34;;;;;;;1.83;1.73;;;27.80;80.40;;;;;;5032364;28;20750;-66
2021/06/29 12:31:09;;;;;;;1.73;1.63;;;27.70;84.40;;;;;;5032743;28;20466;-66
2021/06/29 12:33:39;;;;;;;1.80;1.70;;;27.70;84.30;;;;;;5032753;28;20716;-66
2021/06/29 12:36:32;;;;;;;1.67;1.60;;;27.70;87.70;;;;;;5032952;28;20852;-67
2021/06/29 12:39:03;;;;;;;6.00;2.07;;;27.70;85.60;;;;;;5027799;28;20821;-66
2021/06/29 12:41:35;;;;;;;2.13;2.03;;;27.60;86.50;;;;;;5032442;28;20493;-66
2021/06/29 12:44:19;;;;;;;1.90;1.80;;;27.60;90.00;;;;;;5034473;28;20397;-66
2021/06/29 12:46:45;;;;;;;1.80;1.70;;;27.70;87.30;;;;;;5036608;28;20386;-66
2021/06/29 12:49:20;;;;;;;2.23;2.13;;;27.70;84.50;;;;;;5036051;28;20411;-66
2021/06/29 12:52:01;;;;;;;2.13;1.93;;;27.80;86.20;;;;;;5036249;28;20510;-66
2021/06/29 12:54:29;;;;;;;1.80;1.70;;;27.80;87.20;;;;;;5036481;28;20424;-66
2021/06/29 12:57:00;;;;;;;1.87;1.77;;;27.70;88.50;;;;;;5036369;28;20388;-65
2021/06/29 12:59:38;;;;;;;1.83;1.73;;;27.60;89.20;;;;;;5035723;28;20450;-65
2021/06/29 13:02:08;;;;;;;1.73;1.63;;;27.40;85.10;;;;;;5035921;28;20493;-65
2021/06/29 13:04:46;;;;;;;1.80;1.70;;;27.20;83.20;;;;;;5036479;28;20903;-65